createdAt,value
2019-03-29T00:01:51.270Z,20.57
2019-03-29T00:04:21.119Z,18.93
2019-03-29T00:06:51.035Z,17.03
2019-03-29T00:09:21.035Z,18.10
2019-03-29T00:11:50.935Z,15.43
2019-03-29T00:14:23.442Z,21.13
2019-03-29T00:16:52.435Z,31.00
2019-03-29T00:19:22.322Z,19.67
2019-03-29T00:21:52.264Z,20.57
2019-03-29T00:24:22.155Z,30.43
2019-03-29T00:26:52.561Z,38.27
2019-03-29T00:29:23.081Z,42.97
2019-03-29T00:31:53.002Z,43.13
2019-03-29T00:34:23.010Z,45.47
2019-03-29T00:36:53.099Z,51.97
2019-03-29T00:39:23.054Z,45.70
2019-03-29T00:41:53.045Z,51.17
2019-03-29T00:44:23.054Z,48.10
2019-03-29T00:46:53.236Z,43.45
2019-03-29T00:49:23.097Z,37.73
2019-03-29T00:51:52.971Z,36.10
2019-03-29T00:54:22.884Z,43.40
2019-03-29T00:56:52.859Z,43.23
2019-03-29T00:59:22.775Z,45.60
2019-03-29T01:01:53.105Z,42.93
2019-03-29T01:04:23.171Z,41.70
2019-03-29T01:06:53.022Z,44.73
2019-03-29T01:09:22.911Z,38.10
2019-03-29T01:11:52.793Z,42.07
2019-03-29T01:14:22.741Z,37.50
2019-03-29T01:16:53.873Z,41.60
2019-03-29T01:19:23.795Z,36.90
2019-03-29T01:21:53.860Z,36.37
2019-03-29T01:24:23.785Z,37.17
2019-03-29T01:26:53.686Z,35.20
2019-03-29T01:29:23.617Z,30.57
2019-03-29T01:31:53.557Z,27.37
2019-03-29T01:34:23.470Z,25.87
2019-03-29T01:36:53.894Z,27.87
2019-03-29T01:39:24.308Z,31.07
2019-03-29T01:41:54.220Z,35.03
2019-03-29T01:44:24.110Z,29.57
2019-03-29T01:46:54.085Z,29.30
2019-03-29T01:49:23.966Z,29.67
2019-03-29T01:51:54.048Z,28.90
2019-03-29T01:54:24.227Z,28.62
2019-03-29T01:56:54.325Z,25.17
2019-03-29T01:59:24.262Z,30.17
2019-03-29T02:01:54.954Z,24.12
2019-03-29T02:04:25.210Z,26.82
2019-03-29T02:06:55.196Z,24.00
2019-03-29T02:09:25.164Z,25.15
2019-03-29T02:11:55.062Z,22.65
2019-03-29T02:14:24.971Z,23.10
2019-03-29T02:16:55.889Z,27.70
2019-03-29T02:19:25.970Z,20.80
2019-03-29T02:21:55.990Z,19.45
2019-03-29T02:24:25.901Z,20.17
2019-03-29T02:26:55.814Z,20.00
2019-03-29T02:29:25.769Z,19.98
2019-03-29T02:31:57.037Z,21.57
2019-03-29T02:34:27.055Z,18.90
2019-03-29T02:36:57.132Z,19.00
2019-03-29T02:39:27.398Z,18.15
2019-03-29T02:41:57.451Z,17.33
2019-03-29T02:44:27.365Z,16.48
2019-03-29T02:46:57.226Z,25.02
2019-03-29T02:49:27.184Z,20.65
2019-03-29T02:51:57.106Z,20.52
2019-03-29T02:54:27.010Z,19.35
2019-03-29T02:56:56.878Z,20.55
2019-03-29T02:59:26.780Z,16.42
2019-03-29T03:01:57.214Z,18.73
2019-03-29T03:04:27.152Z,18.90
2019-03-29T03:06:57.990Z,16.97
2019-03-29T03:09:27.923Z,22.45
2019-03-29T03:11:57.811Z,19.00
2019-03-29T03:14:27.764Z,16.93
2019-03-29T03:16:57.876Z,18.52
2019-03-29T03:19:27.823Z,17.42
2019-03-29T03:21:57.751Z,19.40
2019-03-29T03:24:28.086Z,20.12
2019-03-29T03:26:57.937Z,20.70
2019-03-29T03:29:28.001Z,17.57
2019-03-29T03:31:57.888Z,17.98
2019-03-29T03:34:28.144Z,20.48
2019-03-29T03:36:58.599Z,19.92
2019-03-29T03:39:32.402Z,17.95
2019-03-29T03:42:00.435Z,16.02
2019-03-29T03:44:30.333Z,17.07
2019-03-29T03:47:00.277Z,13.68
2019-03-29T03:49:30.204Z,14.85
2019-03-29T03:52:00.244Z,14.33
2019-03-29T03:54:30.130Z,14.25
2019-03-29T03:57:00.783Z,16.55
2019-03-29T03:59:31.525Z,13.08
2019-03-29T04:02:01.424Z,19.50
2019-03-29T04:04:31.353Z,16.57
2019-03-29T04:07:01.265Z,18.30
2019-03-29T04:09:48.532Z,20.92
2019-03-29T04:12:03.988Z,19.90
2019-03-29T04:14:34.004Z,19.70
2019-03-29T04:17:04.203Z,20.00
2019-03-29T04:19:34.284Z,19.40
2019-03-29T04:22:04.196Z,16.65
2019-03-29T04:24:34.512Z,21.05
2019-03-29T04:27:04.518Z,23.23
2019-03-29T04:29:34.417Z,17.93
2019-03-29T04:32:04.332Z,19.87
2019-03-29T04:34:34.259Z,27.27
2019-03-29T04:37:04.183Z,27.93
2019-03-29T04:39:34.091Z,28.77
2019-03-29T04:42:03.985Z,30.30
2019-03-29T04:44:33.893Z,22.00
2019-03-29T04:47:03.789Z,20.03
2019-03-29T04:49:33.732Z,18.30
2019-03-29T04:52:03.630Z,19.53
2019-03-29T04:54:33.553Z,17.60
2019-03-29T04:57:03.483Z,32.70
2019-03-29T04:59:33.402Z,31.30
2019-03-29T05:02:03.429Z,18.83
2019-03-29T05:04:33.331Z,19.23
2019-03-29T05:07:03.235Z,15.77
2019-03-29T05:09:33.147Z,21.03
2019-03-29T05:12:03.147Z,23.83
2019-03-29T05:14:33.094Z,18.37
2019-03-29T05:17:03.207Z,13.73
2019-03-29T05:19:34.115Z,15.67
2019-03-29T05:22:04.049Z,18.77
2019-03-29T05:24:33.961Z,16.27
2019-03-29T05:27:03.875Z,17.83
2019-03-29T05:29:33.785Z,16.07
2019-03-29T05:32:03.670Z,15.47
2019-03-29T05:34:33.575Z,15.17
2019-03-29T05:37:03.490Z,20.80
2019-03-29T05:39:33.401Z,16.47
2019-03-29T05:42:03.332Z,13.23
2019-03-29T05:44:33.228Z,14.13
2019-03-29T05:47:03.168Z,14.93
2019-03-29T05:49:33.095Z,13.83
2019-03-29T05:52:02.997Z,16.47
2019-03-29T05:54:33.066Z,13.90
2019-03-29T05:57:02.940Z,12.77
2019-03-29T05:59:32.858Z,14.07
2019-03-29T06:02:02.761Z,15.37
2019-03-29T06:04:32.660Z,15.17
2019-03-29T06:07:02.616Z,14.33
2019-03-29T06:09:34.954Z,18.43
2019-03-29T06:12:06.432Z,19.03
2019-03-29T06:14:36.351Z,18.47
2019-03-29T06:17:06.279Z,16.57
2019-03-29T06:19:36.287Z,20.57
2019-03-29T06:22:06.253Z,19.33
2019-03-29T06:24:36.128Z,23.37
2019-03-29T06:27:06.040Z,25.53
2019-03-29T06:29:35.957Z,26.90
2019-03-29T06:32:05.856Z,26.37
2019-03-29T06:34:35.982Z,25.00
2019-03-29T06:37:06.421Z,26.13
2019-03-29T06:39:38.212Z,19.17
2019-03-29T06:42:08.143Z,23.57
2019-03-29T06:44:38.057Z,19.03
2019-03-29T06:47:08.120Z,18.87
2019-03-29T06:49:38.017Z,18.60
2019-03-29T06:52:07.966Z,22.10
2019-03-29T06:54:39.247Z,19.97
2019-03-29T06:57:09.237Z,22.53
2019-03-29T06:59:39.375Z,21.50
2019-03-29T07:02:09.295Z,21.10
2019-03-29T07:04:39.183Z,20.70
2019-03-29T07:07:09.361Z,22.77
2019-03-29T07:09:39.250Z,21.83
2019-03-29T07:12:09.548Z,18.60
2019-03-29T07:14:39.827Z,23.20
2019-03-29T07:17:10.390Z,21.70
2019-03-29T07:19:40.727Z,22.63
2019-03-29T07:22:10.961Z,25.03
2019-03-29T07:24:41.003Z,23.43
2019-03-29T07:27:11.523Z,20.90
2019-03-29T07:29:41.445Z,20.37
2019-03-29T07:32:11.360Z,22.87
2019-03-29T07:34:41.343Z,28.93
2019-03-29T07:37:11.254Z,20.20
2019-03-29T07:39:41.222Z,21.83
2019-03-29T07:42:11.238Z,20.10
2019-03-29T07:44:41.363Z,21.63
2019-03-29T07:47:12.691Z,23.03
2019-03-29T07:49:42.831Z,19.13
2019-03-29T07:52:12.743Z,20.57
2019-03-29T07:54:42.698Z,19.20
2019-03-29T07:57:12.630Z,18.23
2019-03-29T07:59:42.533Z,18.07
2019-03-29T08:02:12.416Z,16.50
2019-03-29T08:04:42.370Z,15.80
2019-03-29T08:07:26.298Z,14.53
2019-03-29T08:09:43.977Z,13.47
2019-03-29T08:12:14.375Z,11.80
2019-03-29T08:14:44.279Z,10.83
2019-03-29T08:17:14.257Z,13.17
2019-03-29T08:19:44.174Z,13.93
2019-03-29T08:22:14.263Z,10.28
2019-03-29T08:24:44.156Z,9.00
2019-03-29T08:27:14.082Z,10.53
2019-03-29T08:29:44.260Z,10.17
2019-03-29T08:32:14.178Z,8.27
2019-03-29T08:34:44.079Z,8.83
2019-03-29T08:37:13.950Z,7.77
2019-03-29T08:39:43.867Z,8.50
2019-03-29T08:42:13.889Z,11.03
2019-03-29T08:44:43.780Z,8.40
2019-03-29T08:47:13.694Z,10.47
2019-03-29T08:49:43.679Z,8.40
2019-03-29T08:52:13.558Z,9.65
2019-03-29T08:54:43.521Z,8.55
2019-03-29T08:57:13.466Z,8.18
2019-03-29T08:59:43.362Z,9.68
2019-03-29T09:02:13.892Z,10.23
2019-03-29T09:04:44.265Z,8.75
2019-03-29T09:07:14.328Z,9.53
2019-03-29T09:09:46.451Z,9.17
2019-03-29T09:12:16.287Z,11.03
2019-03-29T09:14:46.219Z,10.47
2019-03-29T09:17:16.107Z,8.83
2019-03-29T09:19:46.110Z,9.48
2019-03-29T09:22:16.033Z,11.12
2019-03-29T09:24:46.019Z,9.25
2019-03-29T09:27:16.057Z,9.28
2019-03-29T09:29:46.196Z,10.72
2019-03-29T09:32:16.226Z,13.05
2019-03-29T09:34:46.284Z,11.28
2019-03-29T09:37:16.681Z,8.23
2019-03-29T09:39:46.657Z,7.70
2019-03-29T09:42:28.250Z,10.50
2019-03-29T09:44:48.276Z,17.20
2019-03-29T09:47:18.351Z,15.57
2019-03-29T09:49:49.469Z,8.07
2019-03-29T09:52:19.828Z,9.43
2019-03-29T09:54:49.753Z,7.92
2019-03-29T09:57:19.628Z,8.33
2019-03-29T09:59:49.629Z,10.55
2019-03-29T10:02:20.098Z,6.20
2019-03-29T10:04:51.063Z,6.30
2019-03-29T10:07:21.066Z,7.28
2019-03-29T10:09:51.029Z,7.97
2019-03-29T10:12:21.147Z,7.10
2019-03-29T10:14:51.099Z,7.23
2019-03-29T10:17:20.981Z,6.57
2019-03-29T10:19:50.914Z,7.43
2019-03-29T10:22:20.955Z,6.20
2019-03-29T10:24:50.876Z,8.83
2019-03-29T10:27:20.758Z,5.60
2019-03-29T10:29:51.493Z,8.07
2019-03-29T10:32:22.977Z,8.50
2019-03-29T10:34:53.215Z,9.03
2019-03-29T10:37:24.103Z,10.90
2019-03-29T10:39:55.298Z,7.33
2019-03-29T10:42:25.520Z,7.60
2019-03-29T10:44:55.539Z,11.40
2019-03-29T10:47:42.030Z,8.93
2019-03-29T10:49:57.226Z,7.23
2019-03-29T10:52:27.127Z,7.93
2019-03-29T10:54:57.001Z,6.27
2019-03-29T10:57:26.907Z,7.53
2019-03-29T10:59:56.765Z,8.47
2019-03-29T11:02:26.694Z,10.17
2019-03-29T11:04:56.655Z,6.93
2019-03-29T11:07:26.569Z,8.87
2019-03-29T11:09:56.989Z,6.50
2019-03-29T11:12:27.051Z,15.20
2019-03-29T11:14:56.932Z,6.97
2019-03-29T11:17:26.980Z,11.33
2019-03-29T11:19:56.913Z,8.43
2019-03-29T11:22:26.852Z,6.33
2019-03-29T11:24:56.806Z,5.87
2019-03-29T11:27:26.689Z,6.57
2019-03-29T11:29:56.883Z,7.47
2019-03-29T11:32:26.739Z,7.17
2019-03-29T11:34:56.751Z,9.90
2019-03-29T11:37:26.843Z,9.00
2019-03-29T11:39:56.866Z,7.67
2019-03-29T11:42:27.951Z,5.80
2019-03-29T11:44:57.857Z,6.30
2019-03-29T11:47:27.841Z,6.40
2019-03-29T11:49:57.764Z,5.67
2019-03-29T11:52:27.812Z,9.50
2019-03-29T11:54:57.752Z,5.70
2019-03-29T11:57:27.979Z,6.10
2019-03-29T11:59:57.984Z,8.60
2019-03-29T12:02:31.476Z,6.23
2019-03-29T12:05:00.346Z,7.73
2019-03-29T12:07:30.691Z,7.60
2019-03-29T12:10:01.216Z,8.73
2019-03-29T12:12:31.306Z,5.97
2019-03-29T12:15:01.272Z,6.63
2019-03-29T12:17:31.519Z,7.17
2019-03-29T12:20:01.452Z,7.77
2019-03-29T12:22:31.436Z,7.47
2019-03-29T12:25:01.423Z,5.83
2019-03-29T12:27:31.387Z,8.13
2019-03-29T12:30:01.483Z,6.57
2019-03-29T12:32:31.422Z,5.47
2019-03-29T12:35:01.430Z,7.27
2019-03-29T12:37:31.301Z,7.07
2019-03-29T12:40:01.227Z,10.77
2019-03-29T12:42:31.174Z,7.97
2019-03-29T12:45:01.104Z,6.03
2019-03-29T12:47:31.094Z,6.97
2019-03-29T12:50:01.022Z,8.27
2019-03-29T12:52:30.879Z,9.10
2019-03-29T12:55:00.798Z,6.60
2019-03-29T12:57:30.757Z,9.10
2019-03-29T13:00:00.814Z,6.37
2019-03-29T13:02:34.264Z,8.47
2019-03-29T13:05:02.419Z,9.50
2019-03-29T13:07:32.318Z,6.47
2019-03-29T13:10:02.238Z,12.07
2019-03-29T13:12:32.422Z,6.23
2019-03-29T13:15:02.527Z,8.53
2019-03-29T13:17:32.457Z,10.07
2019-03-29T13:20:02.366Z,16.87
2019-03-29T13:22:34.706Z,9.83
2019-03-29T13:25:07.199Z,10.37
2019-03-29T13:27:35.805Z,9.40
2019-03-29T13:30:07.116Z,5.70
2019-03-29T13:32:36.988Z,6.53
2019-03-29T13:35:07.528Z,7.73
2019-03-29T13:37:37.411Z,13.40
2019-03-29T13:40:09.411Z,6.43
2019-03-29T13:42:39.280Z,5.73
2019-03-29T13:45:10.415Z,9.70
2019-03-29T13:47:40.385Z,10.87
2019-03-29T13:50:10.912Z,6.83
2019-03-29T13:52:40.834Z,10.40
2019-03-29T13:55:12.822Z,10.43
2019-03-29T13:57:42.782Z,8.40
2019-03-29T14:00:13.163Z,6.00
2019-03-29T14:02:43.654Z,5.63
2019-03-29T14:05:13.655Z,6.07
2019-03-29T14:07:43.729Z,6.23
2019-03-29T14:10:14.722Z,6.77
2019-03-29T14:12:44.589Z,7.37
2019-03-29T14:15:15.593Z,9.37
2019-03-29T14:17:45.511Z,10.53
2019-03-29T14:20:21.625Z,8.60
2019-03-29T14:22:51.647Z,9.03
2019-03-29T14:25:21.504Z,8.93
2019-03-29T14:27:51.346Z,7.40
2019-03-29T14:30:21.264Z,8.67
2019-03-29T14:32:51.135Z,10.70
2019-03-29T14:35:21.009Z,9.43
2019-03-29T14:37:50.893Z,8.40
2019-03-29T14:40:22.311Z,17.20
2019-03-29T14:42:52.199Z,8.33
2019-03-29T14:45:22.154Z,11.20
2019-03-29T14:47:52.079Z,13.83
2019-03-29T14:50:22.011Z,8.77
2019-03-29T14:52:51.941Z,10.93
2019-03-29T14:55:21.907Z,9.20
2019-03-29T14:57:51.813Z,8.50
2019-03-29T15:00:43.941Z,8.60
2019-03-29T15:03:14.334Z,10.93
2019-03-29T15:05:44.356Z,7.50
2019-03-29T15:08:14.445Z,10.00
2019-03-29T15:10:45.957Z,9.67
2019-03-29T15:13:16.080Z,7.20
2019-03-29T15:15:45.977Z,10.70
2019-03-29T15:18:15.927Z,10.13
2019-03-29T15:20:53.171Z,11.67
2019-03-29T15:23:17.577Z,12.87
2019-03-29T15:25:47.777Z,10.10
2019-03-29T15:28:17.687Z,9.20
2019-03-29T15:30:47.815Z,7.07
2019-03-29T15:33:17.823Z,7.30
2019-03-29T15:35:48.052Z,8.23
2019-03-29T15:38:17.924Z,9.97
2019-03-29T15:40:47.827Z,11.97
2019-03-29T15:43:17.799Z,9.80
2019-03-29T15:45:48.201Z,8.30
2019-03-29T15:48:18.130Z,7.43
2019-03-29T15:50:48.137Z,21.37
2019-03-29T15:53:18.082Z,16.83
2019-03-29T15:55:48.009Z,7.57
2019-03-29T15:58:17.910Z,8.30
2019-03-29T16:00:48.051Z,8.37
2019-03-29T16:03:17.961Z,9.63
2019-03-29T16:05:48.636Z,9.67
2019-03-29T16:08:18.654Z,6.77
2019-03-29T16:10:48.550Z,7.17
2019-03-29T16:13:18.673Z,9.63
2019-03-29T16:15:49.011Z,11.63
2019-03-29T16:18:18.948Z,9.33
2019-03-29T16:20:48.873Z,10.67
2019-03-29T16:23:18.847Z,7.10
2019-03-29T16:25:48.829Z,10.13
2019-03-29T16:28:18.754Z,9.67
2019-03-29T16:30:50.273Z,8.73
2019-03-29T16:33:20.187Z,8.27
2019-03-29T16:35:50.117Z,11.53
2019-03-29T16:38:20.034Z,7.20
2019-03-29T16:40:49.975Z,11.17
2019-03-29T16:43:19.907Z,9.47
2019-03-29T16:45:49.890Z,11.87
2019-03-29T16:48:19.782Z,9.17
2019-03-29T16:50:49.782Z,15.70
2019-03-29T16:53:19.672Z,11.33
2019-03-29T16:55:49.593Z,8.60
2019-03-29T16:58:19.882Z,9.00
2019-03-29T17:00:49.758Z,7.60
2019-03-29T17:03:19.717Z,12.77
2019-03-29T17:05:49.694Z,7.97
2019-03-29T17:08:19.602Z,9.63
2019-03-29T17:10:49.528Z,8.97
2019-03-29T17:13:19.420Z,9.13
2019-03-29T17:16:01.222Z,15.20
2019-03-29T17:18:29.137Z,11.60
2019-03-29T17:20:52.642Z,9.53
2019-03-29T17:23:23.002Z,10.27
2019-03-29T17:25:53.010Z,8.70
2019-03-29T17:28:22.950Z,17.17
2019-03-29T17:30:58.954Z,10.40
2019-03-29T17:33:29.312Z,10.93
2019-03-29T17:35:59.358Z,11.97
2019-03-29T17:38:29.805Z,16.23
2019-03-29T17:40:59.714Z,10.20
2019-03-29T17:43:29.749Z,14.20
2019-03-29T17:45:59.705Z,12.73
2019-03-29T17:48:29.738Z,11.70
2019-03-29T17:51:01.047Z,12.87
2019-03-29T17:53:31.033Z,12.40
2019-03-29T17:56:00.939Z,9.87
2019-03-29T17:58:30.886Z,10.43
2019-03-29T18:01:01.087Z,11.27
2019-03-29T18:03:30.956Z,14.70
2019-03-29T18:06:00.873Z,16.10
2019-03-29T18:08:30.844Z,13.10
2019-03-29T18:11:00.991Z,16.00
2019-03-29T18:13:31.017Z,13.80
2019-03-29T18:16:00.944Z,11.67
2019-03-29T18:18:30.842Z,16.57
2019-03-29T18:21:00.780Z,20.63
2019-03-29T18:23:30.691Z,20.70
2019-03-29T18:26:00.592Z,21.37
2019-03-29T18:28:30.483Z,18.03
2019-03-29T18:31:00.981Z,17.60
2019-03-29T18:33:31.160Z,15.50
2019-03-29T18:36:01.159Z,18.13
2019-03-29T18:38:32.929Z,29.07
2019-03-29T18:41:03.017Z,19.73
2019-03-29T18:43:33.093Z,24.97
2019-03-29T18:46:03.135Z,21.87
2019-03-29T18:48:33.089Z,19.77
2019-03-29T18:51:03.204Z,19.87
2019-03-29T18:53:33.290Z,20.50
2019-03-29T18:56:03.227Z,59.73
2019-03-29T18:58:33.599Z,29.17
2019-03-29T19:01:03.571Z,19.13
2019-03-29T19:03:33.603Z,19.70
2019-03-29T19:06:03.694Z,19.83
2019-03-29T19:08:33.636Z,17.33
2019-03-29T19:11:03.574Z,16.77
2019-03-29T19:13:33.535Z,18.83
2019-03-29T19:16:03.927Z,21.50
2019-03-29T19:18:34.272Z,18.47
2019-03-29T19:21:05.891Z,23.40
2019-03-29T19:23:35.802Z,21.20
2019-03-29T19:26:06.173Z,16.30
2019-03-29T19:28:36.066Z,15.53
2019-03-29T19:31:06.200Z,20.93
2019-03-29T19:33:36.291Z,17.43
2019-03-29T19:36:06.646Z,16.13
2019-03-29T19:38:36.807Z,19.63
2019-03-29T19:41:06.784Z,20.53
2019-03-29T19:43:36.952Z,16.97
2019-03-29T19:46:07.198Z,43.60
2019-03-29T19:48:37.193Z,47.70
2019-03-29T19:51:07.069Z,44.40
2019-03-29T19:53:36.994Z,52.20
2019-03-29T19:56:07.143Z,45.97
2019-03-29T19:58:37.193Z,43.80
2019-03-29T20:01:07.083Z,48.40
2019-03-29T20:03:37.082Z,46.80
2019-03-29T20:06:09.627Z,44.10
2019-03-29T20:08:39.557Z,44.60
2019-03-29T20:11:10.526Z,42.77
2019-03-29T20:13:40.572Z,33.73
2019-03-29T20:16:10.477Z,39.30
2019-03-29T20:18:40.409Z,33.03
2019-03-29T20:21:10.380Z,41.53
2019-03-29T20:23:40.506Z,36.67
2019-03-29T20:26:10.443Z,39.93
2019-03-29T20:28:40.379Z,36.77
2019-03-29T20:31:10.401Z,36.33
2019-03-29T20:33:40.314Z,31.40
2019-03-29T20:36:10.187Z,34.53
2019-03-29T20:38:40.141Z,26.03
2019-03-29T20:41:10.268Z,36.77
2019-03-29T20:43:40.260Z,39.43
2019-03-29T20:46:12.624Z,32.00
2019-03-29T20:48:42.517Z,26.40
2019-03-29T20:51:12.512Z,31.20
2019-03-29T20:53:43.766Z,30.10
2019-03-29T20:56:13.786Z,26.83
2019-03-29T20:58:43.677Z,24.80
2019-03-29T21:01:15.032Z,29.30
2019-03-29T21:03:44.907Z,35.60
2019-03-29T21:06:14.987Z,30.30
2019-03-29T21:08:44.975Z,24.03
2019-03-29T21:11:14.935Z,21.40
2019-03-29T21:13:44.959Z,20.03
2019-03-29T21:16:14.944Z,20.40
2019-03-29T21:18:44.967Z,19.27
2019-03-29T21:21:14.889Z,17.23
2019-03-29T21:23:47.237Z,18.43
2019-03-29T21:26:16.398Z,17.17
2019-03-29T21:28:46.321Z,17.47
2019-03-29T21:31:16.250Z,20.00
2019-03-29T21:33:46.162Z,19.40
2019-03-29T21:36:18.081Z,19.63
2019-03-29T21:38:47.754Z,22.33
2019-03-29T21:41:17.943Z,24.40
2019-03-29T21:43:47.946Z,75.30
2019-03-29T21:46:18.257Z,75.23
2019-03-29T21:48:48.201Z,68.33
2019-03-29T21:51:18.160Z,74.53
2019-03-29T21:53:48.442Z,66.63
2019-03-29T21:56:18.416Z,63.37
2019-03-29T21:58:48.386Z,61.67
2019-03-29T22:01:18.499Z,58.90
2019-03-29T22:03:48.428Z,41.87
2019-03-29T22:06:18.396Z,54.73
2019-03-29T22:08:48.403Z,54.93
2019-03-29T22:11:18.379Z,58.00
2019-03-29T22:13:48.281Z,38.70
2019-03-29T22:16:18.331Z,31.57
2019-03-29T22:18:49.681Z,32.97
2019-03-29T22:21:19.731Z,33.33
2019-03-29T22:23:49.862Z,26.93
2019-03-29T22:26:19.797Z,28.57
2019-03-29T22:28:49.702Z,23.73
2019-03-29T22:31:19.608Z,27.00
2019-03-29T22:33:49.719Z,25.60
2019-03-29T22:36:19.684Z,29.47
2019-03-29T22:38:49.645Z,25.57
2019-03-29T22:41:19.578Z,33.07
2019-03-29T22:43:49.679Z,27.37
2019-03-29T22:46:19.609Z,28.70
2019-03-29T22:48:52.403Z,25.17
2019-03-29T22:51:21.242Z,27.53
2019-03-29T22:53:51.136Z,31.57
2019-03-29T22:56:21.097Z,25.30
2019-03-29T22:58:51.080Z,27.50
2019-03-29T23:01:20.982Z,28.23
2019-03-29T23:03:51.169Z,29.93
2019-03-29T23:06:21.097Z,26.07
2019-03-29T23:08:51.039Z,28.73
2019-03-29T23:11:21.155Z,26.20
2019-03-29T23:13:51.053Z,28.27
2019-03-29T23:16:20.957Z,29.23
2019-03-29T23:18:50.912Z,28.00
2019-03-29T23:21:20.951Z,28.03
2019-03-29T23:23:53.318Z,26.23
2019-03-29T23:26:23.250Z,27.53
2019-03-29T23:28:53.146Z,29.57
2019-03-29T23:31:23.080Z,26.70
2019-03-29T23:33:53.047Z,28.17
2019-03-29T23:36:22.974Z,31.40
2019-03-29T23:38:52.888Z,28.03
2019-03-29T23:41:22.820Z,25.50
2019-03-29T23:43:52.713Z,29.03
2019-03-29T23:46:22.609Z,28.93
2019-03-29T23:48:52.545Z,26.80
2019-03-29T23:51:22.468Z,26.37
2019-03-29T23:53:52.626Z,26.47
2019-03-29T23:56:22.591Z,24.73
2019-03-29T23:58:52.986Z,27.20
